createdAt,value
2023-04-08T00:00:48.928Z,24.92
2023-04-08T00:03:15.319Z,26.38
2023-04-08T00:05:41.783Z,24.23
2023-04-08T00:08:08.765Z,24.17
2023-04-08T00:10:35.123Z,23.10
2023-04-08T00:13:01.590Z,25.52
2023-04-08T00:15:28.025Z,24.65
2023-04-08T00:17:54.881Z,23.73
2023-04-08T00:20:21.592Z,24.50
2023-04-08T00:22:47.917Z,22.75
2023-04-08T00:25:14.232Z,21.83
2023-04-08T00:27:40.568Z,22.98
2023-04-08T00:30:06.962Z,23.30
2023-04-08T00:32:33.671Z,22.02
2023-04-08T00:35:00.139Z,23.40
2023-04-08T00:37:26.672Z,21.55
2023-04-08T00:39:52.969Z,22.70
2023-04-08T00:42:19.293Z,22.92
2023-04-08T00:44:46.111Z,21.67
2023-04-08T00:47:12.917Z,22.85
2023-04-08T00:49:39.724Z,21.80
2023-04-08T00:52:06.069Z,23.63
2023-04-08T00:54:32.462Z,22.15
2023-04-08T00:56:58.856Z,20.50
2023-04-08T00:59:26.000Z,21.13
2023-04-08T01:01:52.421Z,19.42
2023-04-08T01:04:19.105Z,18.95
2023-04-08T01:06:45.911Z,21.90
2023-04-08T01:09:12.425Z,21.88
2023-04-08T01:11:39.210Z,20.88
2023-04-08T01:14:05.718Z,19.10
2023-04-08T01:16:32.115Z,20.13
2023-04-08T01:18:58.710Z,21.55
2023-04-08T01:21:25.249Z,21.30
2023-04-08T01:23:51.598Z,20.15
2023-04-08T01:26:17.915Z,19.05
2023-04-08T01:28:44.168Z,19.25
2023-04-08T01:31:10.593Z,20.05
2023-04-08T01:33:37.116Z,19.20
2023-04-08T01:36:03.564Z,19.40
2023-04-08T01:38:29.977Z,21.77
2023-04-08T01:40:56.370Z,20.80
2023-04-08T01:43:22.909Z,21.52
2023-04-08T01:45:49.481Z,20.48
2023-04-08T01:48:15.827Z,20.90
2023-04-08T01:50:42.185Z,20.63
2023-04-08T01:53:08.721Z,20.75
2023-04-08T01:55:35.140Z,20.55
2023-04-08T01:58:01.419Z,21.63
2023-04-08T02:00:28.005Z,19.92
2023-04-08T02:02:55.128Z,21.45
2023-04-08T02:05:21.535Z,21.15
2023-04-08T02:07:47.952Z,20.60
2023-04-08T02:10:14.399Z,21.13
2023-04-08T02:12:40.700Z,20.17
2023-04-08T02:15:07.248Z,21.85
2023-04-08T02:17:35.766Z,22.88
2023-04-08T02:20:02.727Z,20.88
2023-04-08T02:22:29.984Z,20.73
2023-04-08T02:24:56.454Z,21.63
2023-04-08T02:27:23.145Z,21.83
2023-04-08T02:29:49.790Z,20.02
2023-04-08T02:32:16.125Z,23.05
2023-04-08T02:34:42.615Z,20.30
2023-04-08T02:37:09.513Z,19.17
2023-04-08T02:39:35.877Z,21.00
2023-04-08T02:42:02.289Z,21.20
2023-04-08T02:44:29.485Z,20.48
2023-04-08T02:46:56.366Z,20.48
2023-04-08T02:49:23.277Z,22.80
2023-04-08T02:51:49.885Z,22.17
2023-04-08T02:54:16.527Z,21.45
2023-04-08T02:56:43.007Z,22.30
2023-04-08T02:59:09.381Z,20.23
2023-04-08T03:01:36.121Z,23.55
2023-04-08T03:04:02.785Z,23.58
2023-04-08T03:06:29.113Z,23.20
2023-04-08T03:08:55.452Z,22.35
2023-04-08T03:11:21.864Z,21.85
2023-04-08T03:13:48.362Z,22.35
2023-04-08T03:16:14.717Z,21.85
2023-04-08T03:18:41.047Z,22.40
2023-04-08T03:21:07.360Z,21.88
2023-04-08T03:23:33.728Z,22.90
2023-04-08T03:26:00.175Z,24.55
2023-04-08T03:28:26.757Z,23.75
2023-04-08T03:30:53.494Z,21.95
2023-04-08T03:33:19.796Z,22.10
2023-04-08T03:35:46.203Z,23.08
2023-04-08T03:38:12.738Z,20.92
2023-04-08T03:40:39.076Z,23.88
2023-04-08T03:43:05.370Z,24.08
2023-04-08T03:45:31.657Z,23.23
2023-04-08T03:47:58.057Z,24.02
2023-04-08T03:50:24.584Z,22.25
2023-04-08T03:52:51.125Z,23.80
2023-04-08T03:55:17.554Z,23.20
2023-04-08T03:57:44.080Z,22.95
2023-04-08T04:00:10.430Z,24.10
2023-04-08T04:02:36.868Z,22.00
2023-04-08T04:05:03.386Z,25.02
2023-04-08T04:07:29.729Z,25.92
2023-04-08T04:09:56.083Z,24.42
2023-04-08T04:12:22.573Z,23.95
2023-04-08T04:14:48.936Z,23.35
2023-04-08T04:17:15.371Z,25.10
2023-04-08T04:19:41.706Z,22.35
2023-04-08T04:22:08.153Z,24.42
2023-04-08T04:24:34.595Z,23.80
2023-04-08T04:27:00.917Z,24.30
2023-04-08T04:29:27.454Z,23.40
2023-04-08T04:31:53.790Z,24.58
2023-04-08T04:34:20.161Z,23.95
2023-04-08T04:36:46.464Z,26.17
2023-04-08T04:39:12.801Z,25.70
2023-04-08T04:41:39.774Z,23.90
2023-04-08T04:44:06.099Z,25.83
2023-04-08T04:46:32.501Z,24.25
2023-04-08T04:48:59.347Z,26.40
2023-04-08T04:51:25.651Z,25.10
2023-04-08T04:53:51.991Z,24.75
2023-04-08T04:56:18.298Z,26.95
2023-04-08T04:58:44.595Z,25.42
2023-04-08T05:01:10.982Z,26.15
2023-04-08T05:03:37.910Z,27.13
2023-04-08T05:06:04.273Z,26.88
2023-04-08T05:08:30.811Z,26.77
2023-04-08T05:10:57.567Z,26.98
2023-04-08T05:13:24.069Z,26.40
2023-04-08T05:15:50.505Z,25.95
2023-04-08T05:18:16.899Z,25.35
2023-04-08T05:20:43.573Z,27.83
2023-04-08T05:23:10.003Z,27.40
2023-04-08T05:25:36.644Z,28.83
2023-04-08T05:28:03.293Z,27.63
2023-04-08T05:30:30.042Z,26.65
2023-04-08T05:32:59.306Z,26.10
2023-04-08T05:35:26.575Z,26.08
2023-04-08T05:37:53.071Z,24.67
2023-04-08T05:40:19.937Z,29.52
2023-04-08T05:42:46.633Z,24.85
2023-04-08T05:45:13.000Z,27.63
2023-04-08T05:47:39.515Z,28.00
2023-04-08T05:50:06.092Z,27.50
2023-04-08T05:52:32.553Z,25.85
2023-04-08T05:54:58.871Z,26.80
2023-04-08T05:57:25.193Z,26.67
2023-04-08T05:59:51.600Z,30.10
2023-04-08T06:02:18.078Z,28.67
2023-04-08T06:04:44.521Z,28.15
2023-04-08T06:07:10.995Z,27.73
2023-04-08T06:09:37.427Z,28.92
2023-04-08T06:12:04.019Z,29.55
2023-04-08T06:14:30.491Z,26.42
2023-04-08T06:16:56.914Z,26.15
2023-04-08T06:19:23.233Z,27.63
2023-04-08T06:21:49.697Z,26.88
2023-04-08T06:24:16.444Z,26.35
2023-04-08T06:26:42.737Z,26.92
2023-04-08T06:29:09.061Z,26.88
2023-04-08T06:31:35.478Z,25.60
2023-04-08T06:34:02.088Z,26.10
2023-04-08T06:36:28.412Z,28.33
2023-04-08T06:38:54.904Z,26.95
2023-04-08T06:41:21.334Z,28.10
2023-04-08T06:43:47.774Z,26.52
2023-04-08T06:46:14.344Z,26.15
2023-04-08T06:48:41.204Z,26.92
2023-04-08T06:51:07.542Z,25.67
2023-04-08T06:53:33.885Z,26.08
2023-04-08T06:56:00.197Z,26.08
2023-04-08T06:58:27.027Z,26.33
2023-04-08T07:00:53.400Z,26.23
2023-04-08T07:03:20.163Z,24.58
2023-04-08T07:05:46.539Z,27.27
2023-04-08T07:08:13.273Z,26.50
2023-04-08T07:10:39.805Z,25.35
2023-04-08T07:13:06.188Z,26.30
2023-04-08T07:15:32.745Z,25.23
2023-04-08T07:17:59.228Z,27.20
2023-04-08T07:20:25.854Z,23.90
2023-04-08T07:22:52.200Z,24.48
2023-04-08T07:25:19.161Z,24.35
2023-04-08T07:27:45.540Z,23.63
2023-04-08T07:30:11.974Z,26.40
2023-04-08T07:32:38.303Z,26.05
2023-04-08T07:35:04.669Z,24.52
2023-04-08T07:37:30.978Z,25.67
2023-04-08T07:39:57.524Z,24.45
2023-04-08T07:42:24.002Z,23.98
2023-04-08T07:44:50.627Z,24.63
2023-04-08T07:47:17.081Z,25.02
2023-04-08T07:49:43.399Z,25.27
2023-04-08T07:52:09.767Z,23.27
2023-04-08T07:54:36.271Z,25.02
2023-04-08T07:57:02.653Z,25.73
2023-04-08T07:59:29.763Z,25.10
2023-04-08T08:01:56.180Z,26.55
2023-04-08T08:04:23.120Z,24.88
2023-04-08T08:06:49.610Z,25.63
2023-04-08T08:09:15.967Z,25.00
2023-04-08T08:11:42.382Z,26.60
2023-04-08T08:14:08.676Z,25.35
2023-04-08T08:16:35.420Z,28.10
2023-04-08T08:19:01.893Z,25.98
2023-04-08T08:21:28.335Z,24.25
2023-04-08T08:23:54.883Z,25.23
2023-04-08T08:26:21.259Z,24.50
2023-04-08T08:28:47.601Z,23.83
2023-04-08T08:31:14.131Z,26.17
2023-04-08T08:33:40.708Z,25.73
2023-04-08T08:36:07.118Z,26.83
2023-04-08T08:38:33.633Z,24.88
2023-04-08T08:40:59.984Z,26.38
2023-04-08T08:43:26.648Z,27.38
2023-04-08T08:45:53.425Z,24.00
2023-04-08T08:48:20.051Z,25.23
2023-04-08T08:50:46.606Z,26.70
2023-04-08T08:53:13.153Z,23.85
2023-04-08T08:56:05.504Z,25.83
2023-04-08T08:58:26.061Z,23.30
2023-04-08T09:00:52.392Z,25.77
2023-04-08T09:03:18.939Z,24.08
2023-04-08T09:05:45.723Z,26.38
2023-04-08T09:08:12.192Z,25.33
2023-04-08T09:10:38.737Z,26.92
2023-04-08T09:13:05.070Z,23.25
2023-04-08T09:15:31.678Z,22.30
2023-04-08T09:17:58.081Z,25.38
2023-04-08T09:20:24.594Z,23.92
2023-04-08T09:22:50.915Z,23.83
2023-04-08T09:25:17.320Z,20.30
2023-04-08T09:27:43.658Z,23.20
2023-04-08T09:30:10.024Z,25.15
2023-04-08T09:32:36.511Z,23.77
2023-04-08T09:35:04.302Z,22.10
2023-04-08T09:37:32.486Z,23.98
2023-04-08T09:39:59.218Z,21.80
2023-04-08T09:42:25.639Z,22.42
2023-04-08T09:44:52.078Z,23.95
2023-04-08T09:47:18.373Z,21.48
2023-04-08T09:49:44.782Z,22.17
2023-04-08T09:52:11.158Z,22.98
2023-04-08T09:54:37.810Z,22.23
2023-04-08T09:57:04.146Z,21.52
2023-04-08T09:59:30.446Z,21.83
2023-04-08T10:01:57.045Z,21.95
2023-04-08T10:04:23.645Z,21.63
2023-04-08T10:06:50.468Z,18.92
2023-04-08T10:09:17.044Z,19.63
2023-04-08T10:11:43.362Z,21.50
2023-04-08T10:14:09.696Z,22.20
2023-04-08T10:16:36.180Z,22.95
2023-04-08T10:19:02.875Z,20.77
2023-04-08T10:21:29.309Z,21.75
2023-04-08T10:23:55.578Z,22.48
2023-04-08T10:26:21.966Z,21.52
2023-04-08T10:28:48.346Z,23.73
2023-04-08T10:31:14.696Z,19.70
2023-04-08T10:33:41.312Z,21.63
2023-04-08T10:36:07.797Z,21.15
2023-04-08T10:38:34.563Z,19.63
2023-04-08T10:41:01.017Z,19.23
2023-04-08T10:43:27.514Z,20.63
2023-04-08T10:45:53.989Z,20.20
2023-04-08T10:48:20.560Z,19.63
2023-04-08T10:50:46.965Z,21.00
2023-04-08T10:53:13.292Z,20.83
2023-04-08T10:55:39.675Z,18.65
2023-04-08T10:58:06.030Z,19.83
2023-04-08T11:00:32.380Z,19.52
2023-04-08T11:02:59.300Z,19.92
2023-04-08T11:05:25.700Z,20.85
2023-04-08T11:07:52.178Z,19.75
2023-04-08T11:10:18.618Z,19.25
2023-04-08T11:12:45.025Z,18.45
2023-04-08T11:15:11.358Z,20.85
2023-04-08T11:17:37.871Z,20.77
2023-04-08T11:20:04.345Z,19.83
2023-04-08T11:22:30.692Z,20.25
2023-04-08T11:24:57.462Z,20.17
2023-04-08T11:27:23.834Z,20.95
2023-04-08T11:29:50.151Z,20.80
2023-04-08T11:32:16.441Z,20.60
2023-04-08T11:34:42.934Z,19.60
2023-04-08T11:37:09.459Z,20.40
2023-04-08T11:39:35.918Z,20.60
2023-04-08T11:42:02.249Z,20.20
2023-04-08T11:44:28.575Z,19.10
2023-04-08T11:46:54.894Z,20.33
2023-04-08T11:49:21.404Z,20.77
2023-04-08T11:51:47.706Z,21.80
2023-04-08T11:54:14.049Z,21.05
2023-04-08T11:56:40.453Z,19.60
2023-04-08T11:59:07.023Z,21.40
2023-04-08T12:01:33.444Z,20.33
2023-04-08T12:04:00.297Z,19.77
2023-04-08T12:06:26.893Z,19.98
2023-04-08T12:08:53.275Z,23.33
2023-04-08T12:11:20.333Z,19.27
2023-04-08T12:13:46.688Z,19.77
2023-04-08T12:16:13.078Z,20.88
2023-04-08T12:18:39.783Z,19.23
2023-04-08T12:21:06.405Z,20.77
2023-04-08T12:23:32.767Z,19.20
2023-04-08T12:25:59.475Z,18.75
2023-04-08T12:28:25.772Z,20.70
2023-04-08T12:30:52.201Z,20.58
2023-04-08T12:33:18.488Z,20.38
2023-04-08T12:35:45.010Z,18.50
2023-04-08T12:38:11.439Z,19.13
2023-04-08T12:40:37.883Z,20.08
2023-04-08T12:43:04.444Z,19.15
2023-04-08T12:45:30.998Z,19.02
2023-04-08T12:47:57.430Z,18.52
2023-04-08T12:50:23.831Z,20.02
2023-04-08T12:52:50.422Z,20.58
2023-04-08T12:55:16.703Z,18.63
2023-04-08T12:57:43.141Z,21.15
2023-04-08T13:00:09.653Z,20.30
2023-04-08T13:02:36.083Z,21.13
2023-04-08T13:05:02.520Z,18.88
2023-04-08T13:07:29.214Z,19.63
2023-04-08T13:09:55.678Z,20.13
2023-04-08T13:12:22.125Z,19.95
2023-04-08T13:14:48.536Z,20.02
2023-04-08T13:17:14.869Z,20.45
2023-04-08T13:19:41.529Z,20.65
2023-04-08T13:22:07.900Z,20.17
2023-04-08T13:24:34.574Z,18.80
2023-04-08T13:27:00.882Z,21.48
2023-04-08T13:29:27.162Z,20.58
2023-04-08T13:31:53.629Z,22.33
2023-04-08T13:34:20.055Z,19.80
2023-04-08T13:36:46.512Z,19.00
2023-04-08T13:39:12.802Z,19.05
2023-04-08T13:41:39.091Z,19.65
2023-04-08T13:44:05.495Z,21.10
2023-04-08T13:46:31.957Z,20.13
2023-04-08T13:48:58.386Z,19.50
2023-04-08T13:51:25.006Z,21.42
2023-04-08T13:53:51.742Z,20.25
2023-04-08T13:56:18.288Z,21.90
2023-04-08T13:58:49.693Z,22.52
2023-04-08T14:01:18.812Z,21.00
2023-04-08T14:03:45.444Z,20.63
2023-04-08T14:06:11.774Z,23.15
2023-04-08T14:08:38.103Z,18.40
2023-04-08T14:11:04.651Z,23.17
2023-04-08T14:13:31.084Z,22.17
2023-04-08T14:15:57.396Z,22.55
2023-04-08T14:18:23.970Z,23.30
2023-04-08T14:20:50.266Z,22.58
2023-04-08T14:23:17.412Z,21.92
2023-04-08T14:25:43.857Z,23.92
2023-04-08T14:28:10.199Z,22.65
2023-04-08T14:30:36.891Z,23.70
2023-04-08T14:33:03.367Z,21.88
2023-04-08T14:35:29.803Z,22.30
2023-04-08T14:37:56.176Z,22.50
2023-04-08T14:40:22.751Z,23.95
2023-04-08T14:42:49.165Z,25.52
2023-04-08T14:45:15.494Z,22.70
2023-04-08T14:47:41.849Z,23.08
2023-04-08T14:50:08.178Z,23.20
2023-04-08T14:52:34.604Z,22.77
2023-04-08T14:55:01.006Z,25.23
2023-04-08T14:57:27.743Z,26.67
2023-04-08T14:59:54.123Z,26.60
2023-04-08T15:02:20.688Z,21.85
2023-04-08T15:04:47.441Z,23.42
2023-04-08T15:07:13.909Z,26.30
2023-04-08T15:09:40.198Z,26.25
2023-04-08T15:12:07.067Z,25.77
2023-04-08T15:14:33.412Z,22.88
2023-04-08T15:16:59.967Z,22.90
2023-04-08T15:19:26.476Z,26.95
2023-04-08T15:21:53.171Z,25.08
2023-04-08T15:24:20.170Z,23.98
2023-04-08T15:26:46.733Z,23.45
2023-04-08T15:29:13.087Z,25.55
2023-04-08T15:31:39.674Z,24.65
2023-04-08T15:34:06.296Z,24.98
2023-04-08T15:36:32.824Z,25.40
2023-04-08T15:38:59.165Z,25.45
2023-04-08T15:41:25.444Z,24.73
2023-04-08T15:43:51.860Z,25.27
2023-04-08T15:46:18.630Z,26.08
2023-04-08T15:48:45.130Z,26.90
2023-04-08T15:51:11.702Z,23.70
2023-04-08T15:53:38.237Z,24.98
2023-04-08T15:56:04.786Z,26.20
2023-04-08T15:58:31.110Z,25.45
2023-04-08T16:00:57.434Z,27.15
2023-04-08T16:03:24.012Z,26.23
2023-04-08T16:05:50.512Z,26.75
2023-04-08T16:08:16.877Z,26.17
2023-04-08T16:10:43.145Z,27.10
2023-04-08T16:13:09.784Z,23.88
2023-04-08T16:15:36.284Z,25.00
2023-04-08T16:18:02.619Z,23.35
2023-04-08T16:20:28.980Z,25.42
2023-04-08T16:22:55.250Z,24.20
2023-04-08T16:25:21.573Z,24.52
2023-04-08T16:27:48.393Z,25.42
2023-04-08T16:30:15.068Z,24.40
2023-04-08T16:32:41.473Z,26.17
2023-04-08T16:35:07.961Z,24.48
2023-04-08T16:37:34.474Z,24.17
2023-04-08T16:40:01.193Z,23.48
2023-04-08T16:42:27.856Z,23.52
2023-04-08T16:44:54.212Z,24.10
2023-04-08T16:47:20.996Z,26.00
2023-04-08T16:49:47.733Z,25.23
2023-04-08T16:52:14.191Z,23.73
2023-04-08T16:54:40.593Z,25.30
2023-04-08T16:57:06.968Z,25.02
2023-04-08T16:59:33.333Z,25.95
2023-04-08T17:01:59.900Z,23.83
2023-04-08T17:04:26.658Z,25.00
2023-04-08T17:06:53.200Z,25.10
2023-04-08T17:09:19.680Z,24.10
2023-04-08T17:11:46.169Z,25.95
2023-04-08T17:14:12.478Z,23.58
2023-04-08T17:16:38.905Z,23.75
2023-04-08T17:19:05.197Z,23.70
2023-04-08T17:21:31.877Z,24.27
2023-04-08T17:23:58.433Z,24.65
2023-04-08T17:26:24.835Z,24.77
2023-04-08T17:28:51.366Z,23.95
2023-04-08T17:31:17.840Z,25.58
2023-04-08T17:33:44.360Z,25.95
2023-04-08T17:36:10.663Z,26.88
2023-04-08T17:38:37.799Z,26.55
2023-04-08T17:41:04.614Z,529.22
2023-04-08T17:43:31.036Z,523.95
2023-04-08T17:45:57.411Z,390.13
2023-04-08T17:48:23.850Z,324.23
2023-04-08T17:50:50.243Z,300.88
2023-04-08T17:53:16.760Z,292.90
2023-04-08T17:55:43.119Z,279.42
2023-04-08T17:58:09.847Z,277.65
2023-04-08T18:00:36.500Z,275.40
2023-04-08T18:03:03.278Z,265.55
2023-04-08T18:05:29.937Z,426.85
2023-04-08T18:07:56.999Z,699.22
2023-04-08T18:10:23.689Z,704.45
2023-04-08T18:12:50.791Z,549.97
2023-04-08T18:15:21.305Z,485.90
2023-04-08T18:17:47.859Z,456.52
2023-04-08T18:20:14.200Z,432.27
2023-04-08T18:22:40.487Z,528.45
2023-04-08T18:25:06.887Z,629.40
2023-04-08T18:27:33.228Z,661.53
2023-04-08T18:29:59.585Z,582.45
2023-04-08T18:32:25.917Z,641.50
2023-04-08T18:34:52.569Z,713.67
2023-04-08T18:37:18.990Z,724.22
2023-04-08T18:39:45.494Z,656.83
2023-04-08T18:42:12.177Z,623.20
2023-04-08T18:44:38.453Z,599.42
2023-04-08T18:47:04.778Z,584.45
2023-04-08T18:49:32.023Z,532.72
2023-04-08T18:52:02.944Z,492.70
2023-04-08T18:54:30.177Z,662.05
2023-04-08T18:56:56.595Z,633.60
2023-04-08T18:59:22.878Z,585.30
2023-04-08T19:01:49.294Z,566.42
2023-04-08T19:04:15.831Z,566.88
2023-04-08T19:06:42.186Z,563.13
2023-04-08T19:09:08.710Z,565.00
2023-04-08T19:11:35.077Z,559.22
2023-04-08T19:14:01.701Z,552.17
2023-04-08T19:16:28.000Z,550.45
2023-04-08T19:18:54.414Z,554.75
2023-04-08T19:21:20.774Z,546.55
2023-04-08T19:23:47.327Z,544.15
2023-04-08T19:26:13.686Z,545.15
2023-04-08T19:28:40.057Z,541.15
2023-04-08T19:31:06.491Z,536.13
2023-04-08T19:33:33.141Z,519.55
2023-04-08T19:35:59.599Z,525.88
2023-04-08T19:38:26.973Z,526.15
2023-04-08T19:40:53.493Z,518.28
2023-04-08T19:43:19.878Z,522.17
2023-04-08T19:45:46.260Z,510.38
2023-04-08T19:48:12.834Z,518.08
2023-04-08T19:50:39.614Z,505.08
2023-04-08T19:53:06.252Z,508.95
2023-04-08T19:55:32.539Z,497.40
2023-04-08T19:57:59.614Z,496.65
2023-04-08T20:00:26.245Z,494.42
2023-04-08T20:02:52.916Z,496.33
2023-04-08T20:05:19.546Z,491.35
2023-04-08T20:07:46.123Z,482.85
2023-04-08T20:10:12.454Z,480.52
2023-04-08T20:12:39.176Z,475.20
2023-04-08T20:15:06.518Z,474.88
2023-04-08T20:17:33.155Z,469.60
2023-04-08T20:19:59.517Z,465.60
2023-04-08T20:22:25.872Z,465.65
2023-04-08T20:24:52.202Z,455.23
2023-04-08T20:27:19.249Z,456.65
2023-04-08T20:29:45.529Z,454.95
2023-04-08T20:32:12.058Z,455.30
2023-04-08T20:34:38.485Z,442.88
2023-04-08T20:37:04.838Z,443.90
2023-04-08T20:39:31.184Z,438.55
2023-04-08T20:41:57.532Z,435.77
2023-04-08T20:44:23.917Z,429.98
2023-04-08T20:46:50.276Z,430.00
2023-04-08T20:49:16.843Z,425.52
2023-04-08T20:51:43.142Z,423.48
2023-04-08T20:54:09.665Z,414.88
2023-04-08T20:56:36.124Z,410.95
2023-04-08T20:59:02.534Z,410.42
2023-04-08T21:01:29.067Z,412.27
2023-04-08T21:03:55.597Z,411.77
2023-04-08T21:06:21.898Z,402.40
2023-04-08T21:08:48.215Z,395.27
2023-04-08T21:11:14.620Z,390.10
2023-04-08T21:13:40.970Z,393.67
2023-04-08T21:16:08.374Z,382.40
2023-04-08T21:18:34.725Z,384.85
2023-04-08T21:21:00.995Z,377.42
2023-04-08T21:23:27.405Z,377.10
2023-04-08T21:25:53.805Z,365.25
2023-04-08T21:28:20.154Z,370.35
2023-04-08T21:30:46.472Z,357.10
2023-04-08T21:33:12.872Z,354.48
2023-04-08T21:35:39.572Z,352.83
2023-04-08T21:38:06.070Z,347.05
2023-04-08T21:40:32.468Z,344.88
2023-04-08T21:42:58.775Z,343.35
2023-04-08T21:45:25.077Z,330.05
2023-04-08T21:47:51.392Z,336.63
2023-04-08T21:50:17.791Z,327.25
2023-04-08T21:52:44.179Z,322.88
2023-04-08T21:55:10.603Z,316.23
2023-04-08T21:57:37.286Z,318.63
2023-04-08T22:00:03.687Z,310.50
2023-04-08T22:02:31.719Z,308.98
2023-04-08T22:04:58.226Z,308.67
2023-04-08T22:07:25.103Z,302.75
2023-04-08T22:09:51.666Z,302.88
2023-04-08T22:12:18.108Z,297.40
2023-04-08T22:14:44.621Z,293.52
2023-04-08T22:17:11.556Z,282.20
2023-04-08T22:19:37.917Z,288.15
2023-04-08T22:22:04.274Z,281.98
2023-04-08T22:24:30.816Z,274.02
2023-04-08T22:26:57.145Z,267.17
2023-04-08T22:29:23.703Z,263.08
2023-04-08T22:31:50.101Z,268.55
2023-04-08T22:34:16.520Z,256.48
2023-04-08T22:36:43.172Z,261.65
2023-04-08T22:39:09.560Z,257.20
2023-04-08T22:41:35.897Z,253.48
2023-04-08T22:44:02.296Z,251.77
2023-04-08T22:46:28.731Z,248.60
2023-04-08T22:48:55.402Z,248.98
2023-04-08T22:51:21.773Z,243.85
2023-04-08T22:53:48.251Z,244.13
2023-04-08T22:56:14.864Z,236.23
2023-04-08T22:58:41.162Z,233.68
2023-04-08T23:01:07.571Z,228.57
2023-04-08T23:03:34.026Z,222.40
2023-04-08T23:06:00.568Z,223.65
2023-04-08T23:08:27.413Z,216.32
2023-04-08T23:10:54.116Z,215.48
2023-04-08T23:13:20.540Z,217.23
2023-04-08T23:15:47.180Z,209.85
2023-04-08T23:18:13.687Z,211.30
2023-04-08T23:20:40.019Z,208.20
2023-04-08T23:23:06.504Z,205.75
2023-04-08T23:25:32.860Z,199.07
2023-04-08T23:27:59.152Z,199.20
2023-04-08T23:30:26.131Z,193.93
2023-04-08T23:32:52.503Z,192.73
2023-04-08T23:35:18.866Z,194.27
2023-04-08T23:37:45.171Z,192.27
2023-04-08T23:40:11.700Z,189.38
2023-04-08T23:42:38.114Z,182.57
2023-04-08T23:45:04.538Z,183.65
2023-04-08T23:47:31.260Z,176.50
2023-04-08T23:49:58.073Z,174.20
2023-04-08T23:52:24.433Z,174.57
2023-04-08T23:54:50.810Z,169.73
2023-04-08T23:57:17.731Z,171.15
2023-04-08T23:59:44.017Z,170.48
